createdAt,value
2023-01-09T00:01:34.156Z,13.20
2023-01-09T00:05:35.973Z,12.60
2023-01-09T00:09:37.714Z,12.33
2023-01-09T00:13:39.774Z,11.77
2023-01-09T00:17:41.535Z,11.13
2023-01-09T00:21:43.297Z,10.57
2023-01-09T00:25:45.097Z,11.40
2023-01-09T00:29:47.598Z,10.73
2023-01-09T00:33:56.351Z,10.50
2023-01-09T00:37:58.155Z,10.53
2023-01-09T00:41:59.945Z,11.43
2023-01-09T00:46:05.839Z,10.93
2023-01-09T00:50:21.117Z,10.97
2023-01-09T00:54:23.505Z,11.67
2023-01-09T00:58:25.930Z,10.33
2023-01-09T01:02:27.803Z,14.27
2023-01-09T01:06:48.471Z,16.87
2023-01-09T01:10:50.330Z,16.90
2023-01-09T01:14:52.890Z,17.50
2023-01-09T01:18:54.677Z,17.37
2023-01-09T01:22:56.452Z,18.10
2023-01-09T01:26:58.157Z,16.60
2023-01-09T01:31:00.169Z,15.83
2023-01-09T01:35:02.039Z,14.93
2023-01-09T01:39:04.109Z,13.53
2023-01-09T01:43:05.945Z,13.07
2023-01-09T01:47:07.808Z,12.60
2023-01-09T01:51:10.410Z,12.80
2023-01-09T01:55:12.677Z,12.30
2023-01-09T01:59:20.844Z,11.90
2023-01-09T02:03:27.085Z,12.10
2023-01-09T02:07:29.982Z,9.93
2023-01-09T02:11:32.398Z,9.17
2023-01-09T02:15:59.118Z,9.70
2023-01-09T02:20:35.043Z,8.23
2023-01-09T02:24:53.343Z,8.53
2023-01-09T02:29:20.762Z,7.90
2023-01-09T02:33:41.194Z,6.93
2023-01-09T02:38:01.976Z,6.53
2023-01-09T02:42:18.735Z,5.67
2023-01-09T02:46:22.816Z,5.10
2023-01-09T02:50:36.478Z,5.27
2023-01-09T02:54:47.148Z,4.80
2023-01-09T02:59:17.206Z,4.47
2023-01-09T03:03:49.961Z,3.93
2023-01-09T03:08:03.027Z,4.13
2023-01-09T03:12:22.105Z,4.17
2023-01-09T03:16:36.191Z,4.10
2023-01-09T03:20:39.592Z,3.80
2023-01-09T03:24:41.344Z,4.40
2023-01-09T03:28:43.954Z,3.97
2023-01-09T03:32:45.842Z,3.67
2023-01-09T03:36:47.597Z,3.83
2023-01-09T03:40:49.408Z,3.83
2023-01-09T03:44:52.041Z,3.87
2023-01-09T03:48:53.781Z,4.30
2023-01-09T03:52:55.619Z,3.90
2023-01-09T03:56:57.432Z,3.90
2023-01-09T04:01:02.419Z,4.47
2023-01-09T04:05:04.559Z,3.70
2023-01-09T04:09:06.361Z,4.00
2023-01-09T04:13:08.221Z,4.20
2023-01-09T04:17:10.063Z,3.73
2023-01-09T04:21:11.919Z,2.47
2023-01-09T04:25:13.716Z,2.10
2023-01-09T04:29:15.537Z,1.70
2023-01-09T04:33:17.341Z,1.80
2023-01-09T04:37:19.170Z,1.70
2023-01-09T04:41:39.316Z,1.63
2023-01-09T04:45:41.225Z,1.70
2023-01-09T04:49:42.954Z,1.50
2023-01-09T04:53:44.694Z,0.90
2023-01-09T04:57:46.455Z,1.07
2023-01-09T05:01:48.368Z,0.80
2023-01-09T05:05:50.201Z,0.80
2023-01-09T05:09:52.020Z,0.60
2023-01-09T05:13:54.553Z,0.60
2023-01-09T05:17:56.275Z,0.60
2023-01-09T05:21:58.044Z,0.50
2023-01-09T05:26:00.111Z,0.80
2023-01-09T05:30:01.886Z,1.17
2023-01-09T05:34:03.971Z,0.50
2023-01-09T05:38:05.775Z,0.80
2023-01-09T05:42:07.546Z,1.83
2023-01-09T05:46:09.342Z,0.83
2023-01-09T05:50:12.648Z,2.63
2023-01-09T05:54:14.414Z,1.10
2023-01-09T05:58:16.200Z,12.43
2023-01-09T06:02:18.020Z,0.97
2023-01-09T06:06:19.828Z,0.97
2023-01-09T06:10:21.592Z,0.63
2023-01-09T06:14:23.958Z,0.70
2023-01-09T06:18:25.728Z,1.00
2023-01-09T06:22:27.582Z,0.77
2023-01-09T06:26:29.434Z,0.70
2023-01-09T06:30:31.256Z,0.60
2023-01-09T06:34:33.283Z,0.80
2023-01-09T06:38:35.352Z,0.50
2023-01-09T06:42:37.088Z,0.70
2023-01-09T06:46:39.359Z,0.50
2023-01-09T06:50:41.317Z,0.80
2023-01-09T06:54:43.065Z,0.63
2023-01-09T06:58:44.843Z,0.50
2023-01-09T07:02:46.662Z,0.70
2023-01-09T07:06:49.259Z,0.70
2023-01-09T07:10:51.036Z,0.70
2023-01-09T07:14:52.835Z,0.70
2023-01-09T07:18:54.875Z,0.77
2023-01-09T07:22:57.319Z,0.70
2023-01-09T07:26:59.126Z,0.70
2023-01-09T07:31:02.596Z,1.00
2023-01-09T07:35:04.964Z,0.70
2023-01-09T07:39:06.807Z,1.10
2023-01-09T07:43:08.594Z,0.93
2023-01-09T07:47:10.456Z,1.17
2023-01-09T07:51:12.672Z,1.30
2023-01-09T07:55:17.438Z,1.50
2023-01-09T07:59:19.410Z,1.60
2023-01-09T08:03:21.161Z,0.67
2023-01-09T08:07:22.974Z,1.00
2023-01-09T08:11:25.287Z,0.83
2023-01-09T08:15:27.075Z,0.97
2023-01-09T08:19:28.896Z,1.30
2023-01-09T08:23:30.681Z,1.70
2023-01-09T08:27:32.715Z,2.17
2023-01-09T08:31:34.603Z,1.50
2023-01-09T08:35:38.059Z,1.60
2023-01-09T08:39:39.799Z,1.77
2023-01-09T08:44:00.347Z,1.37
2023-01-09T08:48:02.288Z,2.50
2023-01-09T08:52:05.808Z,1.70
2023-01-09T08:56:07.800Z,2.70
2023-01-09T09:00:11.272Z,2.07
2023-01-09T09:04:13.054Z,4.80
2023-01-09T09:08:16.410Z,3.80
2023-01-09T09:12:18.282Z,2.70
2023-01-09T09:16:20.115Z,1.30
2023-01-09T09:20:24.046Z,1.80
2023-01-09T09:24:25.951Z,1.20
2023-01-09T09:28:27.864Z,1.60
2023-01-09T09:32:30.983Z,1.60
2023-01-09T09:36:32.892Z,1.10
2023-01-09T09:40:51.683Z,1.30
2023-01-09T09:45:31.815Z,1.20
2023-01-09T09:49:53.801Z,0.93
2023-01-09T09:54:04.248Z,0.73
2023-01-09T09:58:43.574Z,0.83
2023-01-09T10:02:51.932Z,0.83
2023-01-09T10:06:58.738Z,1.10
2023-01-09T10:11:00.950Z,1.40
2023-01-09T10:15:13.999Z,1.23
2023-01-09T10:19:26.307Z,1.10
2023-01-09T10:23:38.513Z,1.50
2023-01-09T10:28:04.639Z,1.10
2023-01-09T10:32:22.028Z,1.30
2023-01-09T10:37:00.938Z,1.27
2023-01-09T10:41:08.830Z,1.53
2023-01-09T10:45:22.824Z,1.30
2023-01-09T10:49:25.439Z,2.20
2023-01-09T10:53:41.911Z,1.50
2023-01-09T10:57:45.793Z,0.90
2023-01-09T11:01:47.728Z,1.40
2023-01-09T11:05:58.304Z,1.70
2023-01-09T11:10:08.130Z,1.23
2023-01-09T11:14:31.410Z,1.20
2023-01-09T11:18:35.676Z,1.10
2023-01-09T11:22:56.124Z,1.10
2023-01-09T11:27:12.999Z,1.47
2023-01-09T11:31:21.932Z,1.30
2023-01-09T11:35:34.330Z,2.00
2023-01-09T11:39:41.688Z,2.47
2023-01-09T11:43:46.573Z,18.73
2023-01-09T11:47:48.521Z,3.40
2023-01-09T11:52:11.931Z,3.53
2023-01-09T11:56:16.267Z,4.90
2023-01-09T12:00:26.841Z,3.27
2023-01-09T12:04:55.803Z,3.00
2023-01-09T12:09:06.902Z,1.50
2023-01-09T12:13:36.500Z,1.43
2023-01-09T12:17:56.341Z,1.50
2023-01-09T12:22:06.727Z,1.20
2023-01-09T12:26:38.865Z,1.60
2023-01-09T12:30:56.015Z,1.50
2023-01-09T12:35:23.278Z,1.33
2023-01-09T12:39:27.939Z,1.50
2023-01-09T12:43:38.435Z,1.20
2023-01-09T12:47:48.634Z,1.43
2023-01-09T12:51:55.023Z,1.20
2023-01-09T12:56:10.917Z,1.60
2023-01-09T13:00:24.691Z,1.07
2023-01-09T13:04:34.808Z,1.10
2023-01-09T13:08:40.872Z,1.30
2023-01-09T13:12:44.531Z,1.40
2023-01-09T13:16:50.511Z,1.57
2023-01-09T13:20:56.524Z,1.33
2023-01-09T13:25:08.320Z,1.10
2023-01-09T13:29:17.822Z,1.53
2023-01-09T13:33:39.400Z,1.50
2023-01-09T13:37:42.644Z,1.77
2023-01-09T13:42:10.402Z,1.17
2023-01-09T13:46:12.381Z,1.47
2023-01-09T13:50:24.142Z,1.23
2023-01-09T13:55:00.247Z,1.90
2023-01-09T13:59:02.961Z,1.67
2023-01-09T14:03:18.188Z,2.10
2023-01-09T14:07:21.571Z,1.90
2023-01-09T14:11:27.232Z,38.23
2023-01-09T14:15:39.533Z,9.70
2023-01-09T14:19:42.247Z,6.23
2023-01-09T14:24:07.288Z,25.07
2023-01-09T14:28:23.610Z,1.60
2023-01-09T14:32:29.801Z,1.50
2023-01-09T14:36:35.152Z,1.57
2023-01-09T14:40:37.481Z,1.67
2023-01-09T14:45:06.450Z,2.20
2023-01-09T14:49:23.215Z,1.30
2023-01-09T14:53:37.023Z,1.80
2023-01-09T14:57:38.839Z,3.30
2023-01-09T15:01:44.964Z,1.70
2023-01-09T15:05:48.003Z,1.53
2023-01-09T15:09:50.445Z,2.37
2023-01-09T15:13:53.807Z,2.23
2023-01-09T15:17:59.758Z,2.13
2023-01-09T15:22:05.342Z,1.30
2023-01-09T15:26:20.378Z,1.40
2023-01-09T15:30:36.820Z,1.40
2023-01-09T15:34:39.745Z,1.70
2023-01-09T15:38:42.901Z,1.00
2023-01-09T15:43:01.144Z,1.20
2023-01-09T15:47:06.329Z,1.23
2023-01-09T15:51:19.423Z,1.47
2023-01-09T15:55:27.819Z,1.50
2023-01-09T15:59:29.716Z,1.30
2023-01-09T16:03:35.444Z,1.40
2023-01-09T16:07:43.929Z,1.40
2023-01-09T16:11:53.091Z,1.43
2023-01-09T16:15:56.717Z,1.63
2023-01-09T16:20:23.976Z,2.30
2023-01-09T16:24:28.235Z,7.00
2023-01-09T16:28:30.730Z,7.67
2023-01-09T16:32:35.511Z,4.43
2023-01-09T16:36:37.613Z,3.20
2023-01-09T16:40:39.423Z,4.87
2023-01-09T16:44:41.260Z,2.37
2023-01-09T16:48:43.146Z,1.10
2023-01-09T16:52:47.189Z,1.30
2023-01-09T16:56:52.411Z,0.93
2023-01-09T17:00:54.369Z,1.23
2023-01-09T17:04:56.405Z,1.47
2023-01-09T17:08:58.775Z,1.50
2023-01-09T17:13:00.518Z,2.40
2023-01-09T17:17:04.921Z,1.67
2023-01-09T17:21:06.790Z,1.60
2023-01-09T17:25:34.639Z,11.03
2023-01-09T17:29:36.559Z,3.30
2023-01-09T17:33:40.279Z,2.73
2023-01-09T17:37:42.566Z,31.50
2023-01-09T17:41:44.630Z,30.67
2023-01-09T17:45:46.798Z,4.03
2023-01-09T17:49:48.997Z,2.30
2023-01-09T17:53:50.853Z,2.20
2023-01-09T17:57:53.721Z,2.33
2023-01-09T18:01:57.104Z,2.30
2023-01-09T18:05:59.556Z,1.60
2023-01-09T18:10:01.427Z,2.00
2023-01-09T18:14:03.291Z,3.30
2023-01-09T18:18:05.214Z,5.37
2023-01-09T18:22:07.059Z,3.60
2023-01-09T18:26:10.366Z,4.00
2023-01-09T18:30:12.445Z,6.87
2023-01-09T18:34:14.237Z,3.97
2023-01-09T18:38:16.495Z,11.27
2023-01-09T18:42:18.412Z,8.87
2023-01-09T18:46:24.019Z,3.70
2023-01-09T18:50:25.902Z,4.40
2023-01-09T18:54:27.753Z,3.33
2023-01-09T18:58:29.656Z,2.90
2023-01-09T19:02:31.474Z,4.40
2023-01-09T19:06:33.592Z,2.60
2023-01-09T19:10:35.515Z,4.03
2023-01-09T19:14:37.519Z,2.60
2023-01-09T19:18:42.128Z,3.20
2023-01-09T19:22:43.952Z,4.07
2023-01-09T19:26:47.668Z,4.87
2023-01-09T19:30:56.182Z,2.60
2023-01-09T19:34:57.923Z,3.10
2023-01-09T19:39:01.553Z,3.00
2023-01-09T19:43:03.328Z,2.90
2023-01-09T19:47:05.202Z,2.07
2023-01-09T19:51:07.761Z,3.10
2023-01-09T19:55:13.563Z,2.60
2023-01-09T19:59:15.944Z,4.47
2023-01-09T20:03:17.839Z,2.43
2023-01-09T20:07:21.237Z,1.97
2023-01-09T20:11:25.812Z,1.63
2023-01-09T20:15:27.619Z,1.20
2023-01-09T20:19:32.381Z,1.10
2023-01-09T20:23:34.306Z,1.40
2023-01-09T20:27:36.065Z,1.20
2023-01-09T20:31:38.000Z,1.07
2023-01-09T20:35:40.061Z,1.50
2023-01-09T20:39:41.842Z,1.53
2023-01-09T20:43:43.595Z,0.90
2023-01-09T20:47:45.579Z,1.10
2023-01-09T20:51:50.356Z,1.43
2023-01-09T20:55:52.148Z,0.57
2023-01-09T20:59:53.913Z,0.67
2023-01-09T21:03:56.747Z,0.60
2023-01-09T21:07:58.872Z,0.70
2023-01-09T21:12:00.631Z,1.20
2023-01-09T21:16:07.697Z,1.10
2023-01-09T21:20:13.330Z,0.90
2023-01-09T21:24:15.157Z,1.03
2023-01-09T21:28:18.502Z,1.20
2023-01-09T21:32:21.846Z,0.90
2023-01-09T21:36:23.684Z,0.83
2023-01-09T21:40:25.483Z,1.20
2023-01-09T21:44:46.088Z,0.80
2023-01-09T21:48:47.885Z,2.70
2023-01-09T21:52:49.651Z,1.00
2023-01-09T21:56:52.814Z,0.90
2023-01-09T22:01:00.554Z,0.80
2023-01-09T22:05:02.508Z,3.60
2023-01-09T22:09:04.279Z,6.53
2023-01-09T22:13:17.638Z,0.70
2023-01-09T22:17:19.553Z,1.40
2023-01-09T22:21:22.357Z,1.20
2023-01-09T22:25:24.101Z,4.77
2023-01-09T22:29:25.964Z,3.80
2023-01-09T22:33:27.757Z,3.20
2023-01-09T22:37:29.596Z,1.40
2023-01-09T22:41:31.500Z,0.90
2023-01-09T22:45:33.516Z,1.30
2023-01-09T22:49:51.795Z,1.00
2023-01-09T22:53:54.805Z,1.70
2023-01-09T22:57:56.566Z,3.00
2023-01-09T23:01:58.391Z,3.90
2023-01-09T23:06:06.272Z,2.00
2023-01-09T23:10:08.911Z,3.90
2023-01-09T23:14:11.259Z,4.00
2023-01-09T23:18:13.054Z,2.20
2023-01-09T23:22:14.879Z,2.40
2023-01-09T23:26:16.698Z,1.90
2023-01-09T23:30:18.456Z,2.00
2023-01-09T23:34:24.221Z,1.70
2023-01-09T23:38:26.003Z,1.37
2023-01-09T23:42:46.491Z,1.77
2023-01-09T23:46:48.420Z,1.20
2023-01-09T23:50:52.667Z,1.90
2023-01-09T23:54:54.527Z,1.30
2023-01-09T23:58:56.673Z,1.20
